sensor_id;sensor_type;location;lat;lon;timestamp;pressure;altitude;pressure_sealevel;temperature;humidity
56518;BME280;42419;48.760;2.322;2023-04-06T00:02:02;101044.19;;;25.10;25.48
56518;BME280;42419;48.760;2.322;2023-04-06T00:04:27;101044.19;;;25.10;25.09
56518;BME280;42419;48.760;2.322;2023-04-06T00:06:53;101039.75;;;25.09;25.39
56518;BME280;42419;48.760;2.322;2023-04-06T00:09:18;101036.09;;;25.10;25.00
56518;BME280;42419;48.760;2.322;2023-04-06T00:11:43;101037.00;;;25.10;25.14
56518;BME280;42419;48.760;2.322;2023-04-06T00:14:08;101032.53;;;25.09;25.06
56518;BME280;42419;48.760;2.322;2023-04-06T00:16:34;101036.06;;;25.11;25.18
56518;BME280;42419;48.760;2.322;2023-04-06T00:18:59;101029.84;;;25.09;25.25
56518;BME280;42419;48.760;2.322;2023-04-06T00:21:25;101027.09;;;25.11;24.91
56518;BME280;42419;48.760;2.322;2023-04-06T00:23:50;101024.41;;;25.11;25.57
56518;BME280;42419;48.760;2.322;2023-04-06T00:26:16;101023.53;;;25.10;25.29
56518;BME280;42419;48.760;2.322;2023-04-06T00:28:41;101027.03;;;25.12;25.42
56518;BME280;42419;48.760;2.322;2023-04-06T00:31:06;101015.50;;;25.09;25.15
56518;BME280;42419;48.760;2.322;2023-04-06T00:33:32;101005.16;;;25.01;25.50
56518;BME280;42419;48.760;2.322;2023-04-06T00:35:57;101017.09;;;25.13;25.69
56518;BME280;42419;48.760;2.322;2023-04-06T00:38:22;101004.97;;;25.04;25.43
56518;BME280;42419;48.760;2.322;2023-04-06T00:40:48;101010.75;;;25.14;25.41
56518;BME280;42419;48.760;2.322;2023-04-06T00:43:14;101017.97;;;25.13;25.36
56518;BME280;42419;48.760;2.322;2023-04-06T00:45:40;101004.47;;;25.13;25.78
56518;BME280;42419;48.760;2.322;2023-04-06T00:48:06;101007.09;;;25.15;25.96
56518;BME280;42419;48.760;2.322;2023-04-06T00:50:32;101007.09;;;25.15;25.41
56518;BME280;42419;48.760;2.322;2023-04-06T00:52:58;100979.78;;;25.05;25.66
56518;BME280;42419;48.760;2.322;2023-04-06T00:55:24;100996.41;;;25.13;25.95
56518;BME280;42419;48.760;2.322;2023-04-06T00:57:49;100998.94;;;25.16;25.30
56518;BME280;42419;48.760;2.322;2023-04-06T01:00:16;100992.56;;;25.17;25.85
56518;BME280;42419;48.760;2.322;2023-04-06T01:02:42;100992.56;;;25.17;25.79
56518;BME280;42419;48.760;2.322;2023-04-06T01:05:07;100992.50;;;25.19;25.87
56518;BME280;42419;48.760;2.322;2023-04-06T01:07:33;100984.75;;;25.28;25.80
56518;BME280;42419;48.760;2.322;2023-04-06T01:09:58;100989.63;;;25.37;25.37
56518;BME280;42419;48.760;2.322;2023-04-06T01:12:24;100985.78;;;25.41;25.43
56518;BME280;42419;48.760;2.322;2023-04-06T01:14:49;100989.28;;;25.43;25.40
56518;BME280;42419;48.760;2.322;2023-04-06T01:17:15;100984.72;;;25.44;25.34
56518;BME280;42419;48.760;2.322;2023-04-06T01:19:40;100981.28;;;25.42;25.63
56518;BME280;42419;48.760;2.322;2023-04-06T01:22:06;100968.75;;;25.41;25.28
56518;BME280;42419;48.760;2.322;2023-04-06T01:24:32;100975.88;;;25.42;25.03
56518;BME280;42419;48.760;2.322;2023-04-06T01:26:58;100980.47;;;25.40;25.59
56518;BME280;42419;48.760;2.322;2023-04-06T01:29:23;100972.50;;;25.38;25.10
56518;BME280;42419;48.760;2.322;2023-04-06T01:31:48;100972.66;;;25.35;25.06
56518;BME280;42419;48.760;2.322;2023-04-06T01:34:13;100970.94;;;25.34;25.30
56518;BME280;42419;48.760;2.322;2023-04-06T01:36:39;100971.00;;;25.33;25.13
56518;BME280;42419;48.760;2.322;2023-04-06T01:39:04;100968.41;;;25.31;25.57
56518;BME280;42419;48.760;2.322;2023-04-06T01:41:30;100885.66;;;24.86;25.60
56518;BME280;42419;48.760;2.322;2023-04-06T01:43:55;100957.81;;;25.28;24.98
56518;BME280;42419;48.760;2.322;2023-04-06T01:46:20;100921.28;;;25.07;25.50
56518;BME280;42419;48.760;2.322;2023-04-06T01:48:46;100933.56;;;25.13;25.76
56518;BME280;42419;48.760;2.322;2023-04-06T01:51:11;100939.72;;;25.15;25.24
56518;BME280;42419;48.760;2.322;2023-04-06T01:53:36;100964.34;;;25.24;25.44
56518;BME280;42419;48.760;2.322;2023-04-06T01:56:01;100966.16;;;25.24;25.00
56518;BME280;42419;48.760;2.322;2023-04-06T01:58:27;100956.59;;;25.18;25.36
56518;BME280;42419;48.760;2.322;2023-04-06T02:00:52;100961.72;;;25.23;25.38
56518;BME280;42419;48.760;2.322;2023-04-06T02:03:17;100964.41;;;25.23;25.20
56518;BME280;42419;48.760;2.322;2023-04-06T02:05:43;100958.16;;;25.22;25.34
56518;BME280;42419;48.760;2.322;2023-04-06T02:08:08;100968.94;;;25.22;25.28
56518;BME280;42419;48.760;2.322;2023-04-06T02:10:34;100966.22;;;25.22;25.12
56518;BME280;42419;48.760;2.322;2023-04-06T02:13:00;100963.53;;;25.22;25.36
56518;BME280;42419;48.760;2.322;2023-04-06T02:15:26;100940.69;;;25.14;25.49
56518;BME280;42419;48.760;2.322;2023-04-06T02:17:52;100960.84;;;25.22;25.64
56518;BME280;42419;48.760;2.322;2023-04-06T02:20:17;100953.63;;;25.23;25.26
56518;BME280;42419;48.760;2.322;2023-04-06T02:22:43;100922.00;;;25.11;25.69
56518;BME280;42419;48.760;2.322;2023-04-06T02:25:08;100947.28;;;25.24;25.52
56518;BME280;42419;48.760;2.322;2023-04-06T02:27:34;100923.38;;;25.18;25.21
56518;BME280;42419;48.760;2.322;2023-04-06T02:30:01;100932.00;;;25.24;25.66
56518;BME280;42419;48.760;2.322;2023-04-06T02:32:26;100903.91;;;25.13;25.41
56518;BME280;42419;48.760;2.322;2023-04-06T02:34:52;100911.38;;;25.23;25.64
56518;BME280;42419;48.760;2.322;2023-04-06T02:37:17;100921.09;;;25.26;25.16
56518;BME280;42419;48.760;2.322;2023-04-06T02:39:42;100919.28;;;25.26;25.15
56518;BME280;42419;48.760;2.322;2023-04-06T02:42:08;100914.75;;;25.27;25.63
56518;BME280;42419;48.760;2.322;2023-04-06T02:44:34;100913.88;;;25.26;25.64
56518;BME280;42419;48.760;2.322;2023-04-06T02:46:59;100904.44;;;25.19;25.53
56518;BME280;42419;48.760;2.322;2023-04-06T02:49:24;100918.31;;;25.27;24.99
56518;BME280;42419;48.760;2.322;2023-04-06T02:51:50;100924.84;;;25.23;25.19
56518;BME280;42419;48.760;2.322;2023-04-06T02:54:15;100934.50;;;25.27;25.40
56518;BME280;42419;48.760;2.322;2023-04-06T02:56:40;100928.22;;;25.27;25.18
56518;BME280;42419;48.760;2.322;2023-04-06T02:59:06;100920.78;;;25.16;25.33
56518;BME280;42419;48.760;2.322;2023-04-06T03:01:31;100917.13;;;25.17;25.14
56518;BME280;42419;48.760;2.322;2023-04-06T03:03:57;100949.72;;;25.28;25.50
56518;BME280;42419;48.760;2.322;2023-04-06T03:06:22;100940.75;;;25.28;25.11
56518;BME280;42419;48.760;2.322;2023-04-06T03:08:47;100930.84;;;25.28;25.27
56518;BME280;42419;48.760;2.322;2023-04-06T03:11:13;100932.69;;;25.28;25.01
56518;BME280;42419;48.760;2.322;2023-04-06T03:13:38;100921.97;;;25.26;25.41
56518;BME280;42419;48.760;2.322;2023-04-06T03:16:04;100921.03;;;25.27;25.52
56518;BME280;42419;48.760;2.322;2023-04-06T03:18:30;100911.97;;;25.28;25.36
56518;BME280;42419;48.760;2.322;2023-04-06T03:20:55;100906.50;;;25.30;25.04
56518;BME280;42419;48.760;2.322;2023-04-06T03:23:21;100911.91;;;25.30;24.90
56518;BME280;42419;48.760;2.322;2023-04-06T03:25:46;100916.22;;;25.32;24.94
56518;BME280;42419;48.760;2.322;2023-04-06T03:28:11;100901.47;;;25.24;24.68
56518;BME280;42419;48.760;2.322;2023-04-06T03:30:37;100920.69;;;25.33;25.00
56518;BME280;42419;48.760;2.322;2023-04-06T03:33:02;100914.34;;;25.34;24.73
56518;BME280;42419;48.760;2.322;2023-04-06T03:35:27;100917.09;;;25.33;24.67
56518;BME280;42419;48.760;2.322;2023-04-06T03:37:53;100917.97;;;25.33;24.61
56518;BME280;42419;48.760;2.322;2023-04-06T03:40:18;100912.59;;;25.33;25.07
56518;BME280;42419;48.760;2.322;2023-04-06T03:42:43;100911.72;;;25.33;24.91
56518;BME280;42419;48.760;2.322;2023-04-06T03:45:09;100900.94;;;25.33;24.99
56518;BME280;42419;48.760;2.322;2023-04-06T03:47:34;100905.44;;;25.32;24.48
56518;BME280;42419;48.760;2.322;2023-04-06T03:50:00;100900.94;;;25.33;24.61
56518;BME280;42419;48.760;2.322;2023-04-06T03:52:25;100899.25;;;25.30;24.65
56518;BME280;42419;48.760;2.322;2023-04-06T03:54:51;100898.25;;;25.33;25.05
56518;BME280;42419;48.760;2.322;2023-04-06T03:57:16;100907.19;;;25.33;24.76
56518;BME280;42419;48.760;2.322;2023-04-06T03:59:42;100895.53;;;25.33;24.82
56518;BME280;42419;48.760;2.322;2023-04-06T04:02:07;100906.31;;;25.33;24.72
56518;BME280;42419;48.760;2.322;2023-04-06T04:04:32;100895.47;;;25.34;24.46
56518;BME280;42419;48.760;2.322;2023-04-06T04:06:57;100865.06;;;25.17;24.54
56518;BME280;42419;48.760;2.322;2023-04-06T04:09:23;100878.44;;;25.18;24.63
56518;BME280;42419;48.760;2.322;2023-04-06T04:11:48;100900.06;;;25.32;24.52
56518;BME280;42419;48.760;2.322;2023-04-06T04:14:13;100898.31;;;25.31;24.47
56518;BME280;42419;48.760;2.322;2023-04-06T04:16:39;100901.28;;;25.27;24.63
56518;BME280;42419;48.760;2.322;2023-04-06T04:19:06;100898.31;;;25.31;24.63
56518;BME280;42419;48.760;2.322;2023-04-06T04:21:31;100901.00;;;25.31;24.66
56518;BME280;42419;48.760;2.322;2023-04-06T04:23:57;100904.56;;;25.32;24.65
56518;BME280;42419;48.760;2.322;2023-04-06T04:26:22;100908.22;;;25.31;24.55
56518;BME280;42419;48.760;2.322;2023-04-06T04:28:47;100909.22;;;25.30;24.47
56518;BME280;42419;48.760;2.322;2023-04-06T04:31:13;100914.69;;;25.28;24.74
56518;BME280;42419;48.760;2.322;2023-04-06T04:33:38;100898.78;;;25.24;24.70
56518;BME280;42419;48.760;2.322;2023-04-06T04:36:04;100899.25;;;25.30;24.93
56518;BME280;42419;48.760;2.322;2023-04-06T04:38:29;100910.06;;;25.30;24.82
56518;BME280;42419;48.760;2.322;2023-04-06T04:40:54;100905.53;;;25.31;24.79
56518;BME280;42419;48.760;2.322;2023-04-06T04:43:20;100901.00;;;25.31;24.92
56518;BME280;42419;48.760;2.322;2023-04-06T04:45:45;100864.56;;;25.10;24.67
56518;BME280;42419;48.760;2.322;2023-04-06T04:48:10;100902.75;;;25.32;24.46
56518;BME280;42419;48.760;2.322;2023-04-06T04:50:36;100918.06;;;25.32;24.83
56518;BME280;42419;48.760;2.322;2023-04-06T04:53:01;100931.47;;;25.33;24.94
56518;BME280;42419;48.760;2.322;2023-04-06T04:55:27;100929.72;;;25.32;24.82
56518;BME280;42419;48.760;2.322;2023-04-06T04:57:52;100925.28;;;25.31;24.77
56518;BME280;42419;48.760;2.322;2023-04-06T05:00:18;100931.34;;;25.35;24.75
56518;BME280;42419;48.760;2.322;2023-04-06T05:02:43;100935.78;;;25.36;24.76
56518;BME280;42419;48.760;2.322;2023-04-06T05:05:09;100940.22;;;25.37;24.68
56518;BME280;42419;48.760;2.322;2023-04-06T05:07:34;100919.00;;;25.31;24.93
56518;BME280;42419;48.760;2.322;2023-04-06T05:10:00;100930.31;;;25.37;24.43
56518;BME280;42419;48.760;2.322;2023-04-06T05:12:25;100924.91;;;25.37;24.47
56518;BME280;42419;48.760;2.322;2023-04-06T05:14:53;100922.16;;;25.39;24.31
56518;BME280;42419;48.760;2.322;2023-04-06T05:17:18;100927.63;;;25.37;24.57
56518;BME280;42419;48.760;2.322;2023-04-06T05:19:43;100920.69;;;25.33;24.57
56518;BME280;42419;48.760;2.322;2023-04-06T05:22:09;100946.50;;;25.37;24.74
56518;BME280;42419;48.760;2.322;2023-04-06T05:24:34;100934.84;;;25.37;25.85
56518;BME280;42419;48.760;2.322;2023-04-06T05:27:00;100931.94;;;25.40;24.61
56518;BME280;42419;48.760;2.322;2023-04-06T05:29:25;100947.16;;;25.41;24.59
56518;BME280;42419;48.760;2.322;2023-04-06T05:31:51;100941.84;;;25.39;25.19
56518;BME280;42419;48.760;2.322;2023-04-06T05:34:16;100946.41;;;25.39;25.32
56518;BME280;42419;48.760;2.322;2023-04-06T05:36:42;100927.81;;;25.34;25.58
56518;BME280;42419;48.760;2.322;2023-04-06T05:39:07;100944.22;;;25.45;25.49
56518;BME280;42419;48.760;2.322;2023-04-06T05:41:32;100943.25;;;25.46;25.15
56518;BME280;42419;48.760;2.322;2023-04-06T05:43:58;100947.69;;;25.47;24.86
56518;BME280;42419;48.760;2.322;2023-04-06T05:46:23;100919.59;;;25.36;25.32
56518;BME280;42419;48.760;2.322;2023-04-06T05:48:48;100941.25;;;25.50;24.50
56518;BME280;42419;48.760;2.322;2023-04-06T05:51:14;100945.75;;;25.49;24.82
56518;BME280;42419;48.760;2.322;2023-04-06T05:53:39;100924.84;;;25.39;24.35
56518;BME280;42419;48.760;2.322;2023-04-06T05:56:05;100942.72;;;25.56;24.49
56518;BME280;42419;48.760;2.322;2023-04-06T05:58:31;100933.72;;;25.71;24.34
56518;BME280;42419;48.760;2.322;2023-04-06T06:00:58;100936.47;;;25.85;24.10
56518;BME280;42419;48.760;2.322;2023-04-06T06:03:23;100938.72;;;25.92;24.13
56518;BME280;42419;48.760;2.322;2023-04-06T06:05:49;100938.59;;;25.94;24.46
56518;BME280;42419;48.760;2.322;2023-04-06T06:08:14;100940.13;;;25.98;23.72
56518;BME280;42419;48.760;2.322;2023-04-06T06:10:39;100920.28;;;25.85;24.31
56518;BME280;42419;48.760;2.322;2023-04-06T06:13:05;100947.47;;;25.96;24.45
56518;BME280;42419;48.760;2.322;2023-04-06T06:15:30;100944.78;;;25.96;24.43
56518;BME280;42419;48.760;2.322;2023-04-06T06:17:56;100946.69;;;25.94;24.53
56518;BME280;42419;48.760;2.322;2023-04-06T06:20:21;100946.69;;;25.94;24.47
56518;BME280;42419;48.760;2.322;2023-04-06T06:22:47;100946.88;;;25.91;24.34
56518;BME280;42419;48.760;2.322;2023-04-06T06:25:12;100951.41;;;25.90;24.21
56518;BME280;42419;48.760;2.322;2023-04-06T06:27:37;100951.59;;;25.87;24.03
56518;BME280;42419;48.760;2.322;2023-04-06T06:30:03;100948.47;;;25.79;24.12
56518;BME280;42419;48.760;2.322;2023-04-06T06:32:29;100950.06;;;25.83;24.29
56518;BME280;42419;48.760;2.322;2023-04-06T06:34:54;100954.59;;;25.83;24.37
56518;BME280;42419;48.760;2.322;2023-04-06T06:37:19;100949.34;;;25.80;23.89
56518;BME280;42419;48.760;2.322;2023-04-06T06:39:45;100953.03;;;25.79;24.03
56518;BME280;42419;48.760;2.322;2023-04-06T06:42:10;100938.28;;;25.70;24.16
56518;BME280;42419;48.760;2.322;2023-04-06T06:44:35;100932.06;;;25.68;24.12
56518;BME280;42419;48.760;2.322;2023-04-06T06:47:01;100947.72;;;25.77;24.08
56518;BME280;42419;48.760;2.322;2023-04-06T06:49:26;100945.91;;;25.78;23.64
56518;BME280;42419;48.760;2.322;2023-04-06T06:51:51;100940.50;;;25.78;23.86
56518;BME280;42419;48.760;2.322;2023-04-06T06:54:16;100936.06;;;25.77;23.98
56518;BME280;42419;48.760;2.322;2023-04-06T06:56:42;100937.88;;;25.76;24.26
56518;BME280;42419;48.760;2.322;2023-04-06T06:59:07;100931.63;;;25.76;24.16
56518;BME280;42419;48.760;2.322;2023-04-06T07:01:33;100926.22;;;25.76;24.05
56518;BME280;42419;48.760;2.322;2023-04-06T07:03:59;100927.19;;;25.75;23.77
56518;BME280;42419;48.760;2.322;2023-04-06T07:06:24;100931.72;;;25.74;23.72
56518;BME280;42419;48.760;2.322;2023-04-06T07:08:49;100936.25;;;25.74;23.86
56518;BME280;42419;48.760;2.322;2023-04-06T07:11:15;100938.94;;;25.74;23.79
56518;BME280;42419;48.760;2.322;2023-04-06T07:13:42;100937.22;;;25.73;24.07
56518;BME280;42419;48.760;2.322;2023-04-06T07:16:07;100930.22;;;25.69;24.22
56518;BME280;42419;48.760;2.322;2023-04-06T07:18:32;100934.66;;;25.70;24.17
56518;BME280;42419;48.760;2.322;2023-04-06T07:20:58;100947.13;;;25.72;23.86
56518;BME280;42419;48.760;2.322;2023-04-06T07:23:23;100942.59;;;25.73;23.99
56518;BME280;42419;48.760;2.322;2023-04-06T07:25:48;100943.47;;;25.73;24.13
56518;BME280;42419;48.760;2.322;2023-04-06T07:28:16;100936.41;;;25.71;24.26
56518;BME280;42419;48.760;2.322;2023-04-06T07:30:41;100939.13;;;25.71;24.22
56518;BME280;42419;48.760;2.322;2023-04-06T07:33:07;100942.53;;;25.74;23.72
56518;BME280;42419;48.760;2.322;2023-04-06T07:35:33;100940.66;;;25.75;23.77
56518;BME280;42419;48.760;2.322;2023-04-06T07:38:00;100934.50;;;25.73;23.70
56518;BME280;42419;48.760;2.322;2023-04-06T07:40:25;100931.09;;;25.69;24.07
56518;BME280;42419;48.760;2.322;2023-04-06T07:42:51;100937.13;;;25.74;24.01
56518;BME280;42419;48.760;2.322;2023-04-06T07:45:17;100937.97;;;25.75;23.85
56518;BME280;42419;48.760;2.322;2023-04-06T07:47:43;100937.88;;;25.76;24.18
56518;BME280;42419;48.760;2.322;2023-04-06T07:50:09;100937.88;;;25.76;23.88
56518;BME280;42419;48.760;2.322;2023-04-06T07:52:35;100941.38;;;25.78;24.36
56518;BME280;42419;48.760;2.322;2023-04-06T07:55:00;100931.44;;;25.79;23.92
56518;BME280;42419;48.760;2.322;2023-04-06T07:57:25;100933.16;;;25.80;24.10
56518;BME280;42419;48.760;2.322;2023-04-06T07:59:51;100941.25;;;25.80;24.47
56518;BME280;42419;48.760;2.322;2023-04-06T08:02:16;100938.47;;;25.81;24.51
56518;BME280;42419;48.760;2.322;2023-04-06T08:04:43;100933.00;;;25.83;24.47
56518;BME280;42419;48.760;2.322;2023-04-06T08:07:08;100940.09;;;25.84;24.14
56518;BME280;42419;48.760;2.322;2023-04-06T08:09:33;100935.59;;;25.84;24.49
56518;BME280;42419;48.760;2.322;2023-04-06T08:11:59;100874.63;;;25.52;24.65
56518;BME280;42419;48.760;2.322;2023-04-06T08:14:24;100932.81;;;25.86;24.72
56518;BME280;42419;48.760;2.322;2023-04-06T08:16:49;100924.72;;;25.86;24.52
56518;BME280;42419;48.760;2.322;2023-04-06T08:19:15;100936.28;;;25.88;24.37
56518;BME280;42419;48.760;2.322;2023-04-06T08:21:42;100934.34;;;25.90;24.38
56518;BME280;42419;48.760;2.322;2023-04-06T08:24:08;100932.44;;;25.92;24.44
56518;BME280;42419;48.760;2.322;2023-04-06T08:26:33;100924.78;;;25.84;24.43
56518;BME280;42419;48.760;2.322;2023-04-06T08:28:58;100942.97;;;25.97;24.98
56518;BME280;42419;48.760;2.322;2023-04-06T08:31:24;100931.84;;;25.87;24.76
56518;BME280;42419;48.760;2.322;2023-04-06T08:33:49;100939.38;;;25.96;24.46
56518;BME280;42419;48.760;2.322;2023-04-06T08:36:15;100948.34;;;25.97;24.64
56518;BME280;42419;48.760;2.322;2023-04-06T08:38:41;100946.59;;;25.96;24.58
56518;BME280;42419;48.760;2.322;2023-04-06T08:41:12;100949.22;;;25.97;24.82
56518;BME280;42419;48.760;2.322;2023-04-06T08:44:01;100952.00;;;25.96;25.31
56518;BME280;42419;48.760;2.322;2023-04-06T08:46:29;100942.53;;;25.88;24.83
56518;BME280;42419;48.760;2.322;2023-04-06T08:48:59;100963.28;;;25.88;25.39
56518;BME280;42419;48.760;2.322;2023-04-06T08:51:26;100957.88;;;25.88;24.43
56518;BME280;42419;48.760;2.322;2023-04-06T08:53:53;100939.97;;;25.71;24.84
56518;BME280;42419;48.760;2.322;2023-04-06T08:56:21;100961.88;;;25.81;24.71
56518;BME280;42419;48.760;2.322;2023-04-06T08:58:47;100974.22;;;25.85;24.76
56518;BME280;42419;48.760;2.322;2023-04-06T09:01:14;100967.09;;;25.84;24.66
56518;BME280;42419;48.760;2.322;2023-04-06T09:03:41;100971.53;;;25.85;24.55
56518;BME280;42419;48.760;2.322;2023-04-06T09:06:08;100973.28;;;25.86;25.19
56518;BME280;42419;48.760;2.322;2023-04-06T09:08:35;100965.19;;;25.86;24.56
56518;BME280;42419;48.760;2.322;2023-04-06T09:11:02;100962.47;;;25.86;25.18
56518;BME280;42419;48.760;2.322;2023-04-06T09:13:28;100945.41;;;25.85;25.02
56518;BME280;42419;48.760;2.322;2023-04-06T09:16:04;100953.44;;;25.87;25.46
56518;BME280;42419;48.760;2.322;2023-04-06T09:18:33;100957.00;;;25.87;24.57
56518;BME280;42419;48.760;2.322;2023-04-06T09:21:02;100969.63;;;25.87;24.78
56518;BME280;42419;48.760;2.322;2023-04-06T09:23:28;100971.66;;;25.83;24.78
56518;BME280;42419;48.760;2.322;2023-04-06T09:26:07;100979.34;;;25.89;24.88
56518;BME280;42419;48.760;2.322;2023-04-06T09:31:11;100972.88;;;25.78;25.09
56518;BME280;42419;48.760;2.322;2023-04-06T09:33:38;100983.09;;;25.87;25.11
56518;BME280;42419;48.760;2.322;2023-04-06T09:36:06;100979.63;;;25.85;25.06
56518;BME280;42419;48.760;2.322;2023-04-06T09:38:32;100957.44;;;25.80;24.70
56518;BME280;42419;48.760;2.322;2023-04-06T09:40:57;100974.06;;;25.88;24.91
56518;BME280;42419;48.760;2.322;2023-04-06T09:43:24;100963.28;;;25.88;25.07
56518;BME280;42419;48.760;2.322;2023-04-06T09:45:50;100984.75;;;25.89;24.99
56518;BME280;42419;48.760;2.322;2023-04-06T09:48:16;100974.81;;;25.90;25.25
56518;BME280;42419;48.760;2.322;2023-04-06T09:50:42;100970.22;;;25.92;25.32
56518;BME280;42419;48.760;2.322;2023-04-06T09:53:07;100959.44;;;25.92;25.29
56518;BME280;42419;48.760;2.322;2023-04-06T09:55:43;100972.81;;;25.93;25.18
56518;BME280;42419;48.760;2.322;2023-04-06T09:58:18;100977.31;;;25.93;25.07
56518;BME280;42419;48.760;2.322;2023-04-06T10:00:51;100965.19;;;25.86;25.13
56518;BME280;42419;48.760;2.322;2023-04-06T10:05:59;100977.53;;;25.90;25.17
56518;BME280;42419;48.760;2.322;2023-04-06T10:08:28;100984.84;;;25.88;25.09
56518;BME280;42419;48.760;2.322;2023-04-06T10:10:55;100989.53;;;25.84;25.32
56518;BME280;42419;48.760;2.322;2023-04-06T10:13:21;100990.41;;;25.85;25.00
56518;BME280;42419;48.760;2.322;2023-04-06T10:15:47;100983.47;;;25.81;25.31
56518;BME280;42419;48.760;2.322;2023-04-06T10:18:13;100980.69;;;25.82;24.99
56518;BME280;42419;48.760;2.322;2023-04-06T10:20:43;100978.06;;;25.81;25.37
56518;BME280;42419;48.760;2.322;2023-04-06T10:23:35;100979.81;;;25.82;24.96
56518;BME280;42419;48.760;2.322;2023-04-06T10:26:02;100971.47;;;25.71;25.63
56518;BME280;42419;48.760;2.322;2023-04-06T10:28:32;100979.22;;;25.77;25.03
56518;BME280;42419;48.760;2.322;2023-04-06T10:31:00;100984.53;;;25.78;25.19
56518;BME280;42419;48.760;2.322;2023-04-06T10:33:26;100981.03;;;25.76;25.57
56518;BME280;42419;48.760;2.322;2023-04-06T10:35:52;100965.38;;;25.67;25.48
56518;BME280;42419;48.760;2.322;2023-04-06T10:38:19;100988.19;;;25.77;25.09
56518;BME280;42419;48.760;2.322;2023-04-06T10:40:47;100966.25;;;25.68;25.44
56518;BME280;42419;48.760;2.322;2023-04-06T10:43:20;100988.19;;;25.77;25.17
56518;BME280;42419;48.760;2.322;2023-04-06T10:45:55;100989.94;;;25.78;25.37
56518;BME280;42419;48.760;2.322;2023-04-06T10:48:20;100982.78;;;25.77;25.63
56518;BME280;42419;48.760;2.322;2023-04-06T10:50:51;100984.53;;;25.78;25.54
56518;BME280;42419;48.760;2.322;2023-04-06T10:53:27;100987.22;;;25.78;25.59
56518;BME280;42419;48.760;2.322;2023-04-06T10:55:54;100988.94;;;25.79;25.60
56518;BME280;42419;48.760;2.322;2023-04-06T10:58:24;100996.09;;;25.80;25.52
56518;BME280;42419;48.760;2.322;2023-04-06T11:00:50;100999.66;;;25.81;25.70
56518;BME280;42419;48.760;2.322;2023-04-06T11:03:16;100989.13;;;25.76;25.48
56518;BME280;42419;48.760;2.322;2023-04-06T11:05:45;100999.19;;;25.88;25.29
56518;BME280;42419;48.760;2.322;2023-04-06T11:08:28;100999.78;;;25.93;25.53
56518;BME280;42419;48.760;2.322;2023-04-06T11:11:13;100989.97;;;25.92;25.10
56518;BME280;42419;48.760;2.322;2023-04-06T11:13:45;100974.63;;;25.79;25.45
56518;BME280;42419;48.760;2.322;2023-04-06T11:16:19;100995.72;;;25.86;26.01
56518;BME280;42419;48.760;2.322;2023-04-06T11:18:55;100990.53;;;25.83;25.49
56518;BME280;42419;48.760;2.322;2023-04-06T11:21:45;100996.94;;;25.81;25.77
56518;BME280;42419;48.760;2.322;2023-04-06T11:26:41;100977.66;;;25.73;25.82
56518;BME280;42419;48.760;2.322;2023-04-06T11:29:07;100982.09;;;25.74;25.83
56518;BME280;42419;48.760;2.322;2023-04-06T11:31:38;100983.66;;;25.78;25.58
56518;BME280;42419;48.760;2.322;2023-04-06T11:34:09;100983.28;;;25.84;25.45
56518;BME280;42419;48.760;2.322;2023-04-06T11:36:35;100973.19;;;25.87;25.57
56518;BME280;42419;48.760;2.322;2023-04-06T11:39:03;100964.03;;;25.90;25.64
56518;BME280;42419;48.760;2.322;2023-04-06T11:41:28;100964.34;;;26.00;25.84
56518;BME280;42419;48.760;2.322;2023-04-06T11:43:55;100964.25;;;26.01;25.70
56518;BME280;42419;48.760;2.322;2023-04-06T11:46:21;100953.19;;;26.06;25.36
56518;BME280;42419;48.760;2.322;2023-04-06T11:48:46;100944.97;;;26.07;25.73
56518;BME280;42419;48.760;2.322;2023-04-06T11:51:12;100918.16;;;25.90;25.78
56518;BME280;42419;48.760;2.322;2023-04-06T11:53:44;100945.94;;;26.06;25.63
56518;BME280;42419;48.760;2.322;2023-04-06T11:56:23;100938.81;;;26.05;25.90
56518;BME280;42419;48.760;2.322;2023-04-06T11:58:48;100931.00;;;26.01;26.00
56518;BME280;42419;48.760;2.322;2023-04-06T12:01:14;100937.72;;;25.93;25.34
56518;BME280;42419;48.760;2.322;2023-04-06T12:03:39;100928.38;;;25.85;26.59
56518;BME280;42419;48.760;2.322;2023-04-06T12:06:05;100932.88;;;25.84;26.69
56518;BME280;42419;48.760;2.322;2023-04-06T12:08:30;100937.69;;;25.79;26.63
56518;BME280;42419;48.760;2.322;2023-04-06T12:10:55;100934.44;;;25.74;26.81
56518;BME280;42419;48.760;2.322;2023-04-06T12:13:21;100929.44;;;25.67;26.51
56518;BME280;42419;48.760;2.322;2023-04-06T12:15:46;100931.47;;;25.63;26.50
56518;BME280;42419;48.760;2.322;2023-04-06T12:18:11;100926.34;;;25.59;26.65
56518;BME280;42419;48.760;2.322;2023-04-06T12:20:36;100930.25;;;25.53;26.68
56518;BME280;42419;48.760;2.322;2023-04-06T12:23:02;100919.66;;;25.50;26.76
56518;BME280;42419;48.760;2.322;2023-04-06T12:25:27;100921.69;;;25.46;26.64
56518;BME280;42419;48.760;2.322;2023-04-06T12:27:52;100921.00;;;25.43;26.65
56518;BME280;42419;48.760;2.322;2023-04-06T12:30:18;100917.50;;;25.41;26.50
56518;BME280;42419;48.760;2.322;2023-04-06T12:32:43;100928.38;;;25.39;26.56
56518;BME280;42419;48.760;2.322;2023-04-06T12:35:09;100915.16;;;25.35;26.68
56518;BME280;42419;48.760;2.322;2023-04-06T12:37:34;100924.91;;;25.37;26.95
56518;BME280;42419;48.760;2.322;2023-04-06T12:39:59;100925.00;;;25.36;26.98
56518;BME280;42419;48.760;2.322;2023-04-06T12:42:25;100921.44;;;25.35;26.67
56518;BME280;42419;48.760;2.322;2023-04-06T12:44:51;100918.94;;;25.32;26.62
56518;BME280;42419;48.760;2.322;2023-04-06T12:47:16;100916.22;;;25.32;27.01
56518;BME280;42419;48.760;2.322;2023-04-06T12:49:43;100910.91;;;25.31;26.57
56518;BME280;42419;48.760;2.322;2023-04-06T12:52:08;100900.59;;;25.23;26.83
56518;BME280;42419;48.760;2.322;2023-04-06T12:54:34;100912.06;;;25.27;26.89